createdAt,value
2023-02-06T00:03:57.916Z,16.0
2023-02-06T00:10:43.322Z,13.284280936454849
2023-02-06T00:17:04.497Z,17.08361204013378
2023-02-06T00:23:25.748Z,18.879598662207357
2023-02-06T00:29:45.834Z,22.903010033444815
2023-02-06T00:36:06.695Z,26.411371237458194
2023-02-06T00:42:27.775Z,30.47826086956522
2023-02-06T00:48:50.166Z,25.498327759197323
2023-02-06T01:03:45.918Z,22.431438127090303
2023-02-06T01:10:09.409Z,17.48494983277592
2023-02-06T01:21:38.637Z,15.518394648829432
2023-02-06T01:28:00.823Z,14.290969899665551
2023-02-06T01:54:09.901Z,21.869565217391305
2023-02-06T02:00:30.970Z,22.91973244147157
2023-02-06T02:07:12.096Z,21.140468227424748
2023-02-06T02:17:48.473Z,12.234113712374581
2023-02-06T02:24:10.931Z,13.876254180602007
2023-02-06T02:32:58.867Z,14.214046822742475
2023-02-06T02:45:32.431Z,10.678929765886288
2023-02-06T02:51:53.933Z,9.545150501672241
2023-02-06T03:01:00.241Z,8.959866220735785
2023-02-06T03:07:21.952Z,7.354515050167224
2023-02-06T03:13:43.835Z,7.418060200668896
2023-02-06T03:22:22.682Z,9.709030100334449
2023-02-06T03:28:45.193Z,7.030100334448161
2023-02-06T03:40:21.925Z,8.471571906354516
2023-02-06T03:46:45.196Z,8.588628762541806
2023-02-06T03:53:06.368Z,6.588628762541806
2023-02-06T04:05:22.397Z,6.688963210702341
2023-02-06T04:16:14.644Z,8.14046822742475
2023-02-06T04:22:36.895Z,8.789297658862877
2023-02-06T04:29:01.477Z,9.635451505016722
2023-02-06T04:35:23.448Z,9.862876254180602
2023-02-06T04:44:51.144Z,10.719063545150501
2023-02-06T04:54:56.543Z,13.434782608695652
2023-02-06T05:01:18.259Z,18.4247491638796
2023-02-06T05:07:40.856Z,19.906354515050168
2023-02-06T05:23:34.716Z,24.85284280936455
2023-02-06T05:29:56.476Z,25.662207357859533
2023-02-06T05:36:18.853Z,25.34448160535117
2023-02-06T05:44:37.443Z,27.05351170568562
2023-02-06T05:50:59.299Z,20.872909698996654
2023-02-06T05:57:20.982Z,19.103678929765888
2023-02-06T06:12:35.201Z,15.986622073578594
2023-02-06T06:18:58.006Z,18.54515050167224
2023-02-06T06:25:20.928Z,21.187290969899667
2023-02-06T06:32:30.289Z,21.68561872909699
2023-02-06T06:38:53.042Z,22.036789297658864
2023-02-06T06:45:15.499Z,20.745819397993312
2023-02-06T06:53:17.079Z,22.337792642140467
2023-02-06T06:59:41.061Z,22.598662207357858
2023-02-06T07:06:03.462Z,24.668896321070235
2023-02-06T07:16:27.946Z,26.214046822742475
2023-02-06T07:22:52.648Z,26.869565217391305
2023-02-06T07:29:21.722Z,28.140468227424748
2023-02-06T07:35:46.490Z,29.698996655518396
2023-02-06T07:46:09.713Z,29.67558528428094
2023-02-06T07:53:55.481Z,38.67224080267559
2023-02-06T08:03:12.216Z,37.90969899665552
2023-02-06T08:09:38.014Z,32.2943143812709
2023-02-06T08:16:06.341Z,28.367892976588628
2023-02-06T08:24:50.171Z,24.434782608695652
2023-02-06T08:38:18.030Z,23.705685618729095
2023-02-06T08:49:23.399Z,22.48494983277592
2023-02-06T08:55:49.543Z,22.806020066889634
2023-02-06T09:02:14.285Z,23.47826086956522
2023-02-06T09:11:43.773Z,29.91973244147157
2023-02-06T09:18:08.139Z,27.267558528428093
2023-02-06T09:24:32.564Z,27.735785953177256
2023-02-06T09:36:59.231Z,26.183946488294314
2023-02-06T09:47:55.429Z,24.421404682274247
2023-02-06T09:54:19.169Z,33.04347826086956
2023-02-06T10:00:43.609Z,33.54515050167224
2023-02-06T10:07:08.004Z,33.75585284280937
2023-02-06T10:13:33.069Z,26.54515050167224
2023-02-06T10:19:57.152Z,21.270903010033443
2023-02-06T10:26:21.393Z,21.929765886287626
2023-02-06T10:33:00.523Z,28.551839464882942
2023-02-06T10:39:24.907Z,26.204013377926422
2023-02-06T10:49:07.142Z,18.94314381270903
2023-02-06T10:55:32.548Z,22.548494983277592
2023-02-06T11:06:40.495Z,20.070234113712374
2023-02-06T11:13:42.209Z,16.51839464882943
2023-02-06T11:20:08.514Z,14.267558528428093
2023-02-06T11:26:32.785Z,22.107023411371237
2023-02-06T11:33:04.296Z,39.585284280936456
2023-02-06T11:44:39.280Z,27.036789297658864
2023-02-06T11:51:03.768Z,31.846153846153847
2023-02-06T11:59:20.364Z,25.77257525083612
2023-02-06T12:11:12.582Z,20.551839464882942
2023-02-06T12:18:22.009Z,18.752508361204015
2023-02-06T12:24:46.474Z,14.394648829431437
2023-02-06T12:31:10.017Z,12.290969899665551
2023-02-06T12:40:16.349Z,15.51505016722408
2023-02-06T13:03:25.284Z,15.117056856187292
2023-02-06T13:09:49.713Z,10.404682274247492
2023-02-06T13:16:12.980Z,10.397993311036789
2023-02-06T13:22:37.885Z,12.418060200668897
2023-02-06T13:29:01.430Z,12.438127090301004
2023-02-06T13:35:25.179Z,9.668896321070234
2023-02-06T13:41:49.021Z,9.906354515050166
2023-02-06T13:48:11.970Z,9.501672240802675
2023-02-06T13:56:53.391Z,9.020066889632107
2023-02-06T14:05:20.898Z,9.59866220735786
2023-02-06T14:11:44.695Z,7.802675585284281
2023-02-06T14:20:44.000Z,9.367892976588628
2023-02-06T14:27:57.149Z,8.785953177257525
2023-02-06T14:39:04.847Z,8.79598662207358
2023-02-06T14:45:33.781Z,7.367892976588629
2023-02-06T14:52:03.222Z,8.240802675585284
2023-02-06T14:59:29.245Z,8.692307692307692
2023-02-06T15:05:53.928Z,8.010033444816054
2023-02-06T15:12:18.610Z,9.508361204013378
2023-02-06T15:18:44.583Z,8.384615384615385
2023-02-06T15:25:09.806Z,7.367892976588629
2023-02-06T15:31:36.661Z,7.070234113712375
2023-02-06T15:38:01.613Z,5.565217391304348
2023-02-06T15:45:47.822Z,9.692307692307692
2023-02-06T15:56:06.757Z,12.709030100334449
2023-02-06T16:02:32.299Z,10.809364548494983
2023-02-06T16:15:24.248Z,11.444816053511706
2023-02-06T16:21:48.789Z,11.678929765886288
2023-02-06T16:28:11.463Z,13.153846153846153
2023-02-06T16:34:34.167Z,16.29096989966555
2023-02-06T16:40:55.758Z,14.996655518394649
2023-02-06T16:47:17.362Z,17.270903010033443
2023-02-06T16:57:00.341Z,19.441471571906355
2023-02-06T17:03:21.562Z,20.123745819397993
2023-02-06T17:09:42.930Z,24.558528428093645
2023-02-06T17:16:04.814Z,22.83277591973244
2023-02-06T17:22:26.814Z,22.337792642140467
2023-02-06T17:28:48.207Z,24.103678929765888
2023-02-06T17:46:39.353Z,27.729096989966557
2023-02-06T18:11:49.760Z,35.82943143812709
2023-02-06T18:24:18.198Z,35.070234113712374
2023-02-06T18:35:19.594Z,35.525083612040135
2023-02-06T18:41:41.889Z,39.20066889632107
2023-02-06T18:54:01.402Z,46.7123745819398
2023-02-06T19:03:11.847Z,47.62207357859532
2023-02-06T19:21:05.302Z,58.10033444816054
2023-02-06T19:27:29.415Z,54.21739130434783
2023-02-06T19:33:51.729Z,45.357859531772576
2023-02-06T19:45:46.222Z,37.36789297658863
2023-02-06T19:52:08.397Z,35.66220735785953
2023-02-06T19:58:31.270Z,36.51505016722408
2023-02-06T20:04:53.044Z,35.11705685618729
2023-02-06T20:20:17.585Z,34.63210702341137
2023-02-06T20:32:40.900Z,35.22742474916388
2023-02-06T20:39:02.305Z,34.11705685618729
2023-02-06T20:45:23.992Z,34.013377926421406
2023-02-06T20:51:46.857Z,33.57190635451505
2023-02-06T20:58:08.675Z,34.50167224080268
2023-02-06T21:07:49.698Z,34.88963210702341
2023-02-06T21:14:12.736Z,35.163879598662206
2023-02-06T21:20:34.586Z,35.32775919732441
2023-02-06T21:26:58.601Z,34.42140468227425
2023-02-06T21:33:22.771Z,33.09030100334448
2023-02-06T21:42:25.757Z,33.53846153846154
2023-02-06T21:48:48.229Z,33.47826086956522
2023-02-06T21:55:10.174Z,35.30769230769231
2023-02-06T22:01:31.925Z,35.42140468227425
2023-02-06T22:11:36.005Z,36.7324414715719
2023-02-06T22:21:52.590Z,36.11371237458194
2023-02-06T22:34:56.786Z,35.4314381270903
2023-02-06T22:43:07.916Z,34.8494983277592
2023-02-06T22:52:57.775Z,33.414715719063544
2023-02-06T22:59:20.620Z,31.86622073578595
2023-02-06T23:05:44.259Z,30.31438127090301
2023-02-06T23:27:47.774Z,30.53846153846154
2023-02-06T23:34:10.391Z,30.933110367892976
2023-02-06T23:47:19.609Z,33.75585284280937
2023-02-06T23:59:44.393Z,35.79598662207358
